sensor_id;sensor_type;location;lat;lon;timestamp;P1;durP1;ratioP1;P2;durP2;ratioP2
17818;SDS011;9034;50.284;19.310;2022-10-31T00:00:40;176.35;;;29.63;;
17818;SDS011;9034;50.284;19.310;2022-10-31T00:01:44;97.82;;;23.95;;
17818;SDS011;9034;50.284;19.310;2022-10-31T00:02:47;88.88;;;23.85;;
17818;SDS011;9034;50.284;19.310;2022-10-31T00:03:52;64.47;;;21.50;;
17818;SDS011;9034;50.284;19.310;2022-10-31T00:04:55;81.32;;;21.38;;
17818;SDS011;9034;50.284;19.310;2022-10-31T00:05:59;95.90;;;23.98;;
17818;SDS011;9034;50.284;19.310;2022-10-31T00:07:03;38.15;;;19.23;;
17818;SDS011;9034;50.284;19.310;2022-10-31T00:08:07;33.33;;;18.55;;
17818;SDS011;9034;50.284;19.310;2022-10-31T00:09:10;43.80;;;21.05;;
17818;SDS011;9034;50.284;19.310;2022-10-31T00:10:15;34.17;;;20.98;;
17818;SDS011;9034;50.284;19.310;2022-10-31T00:11:19;50.45;;;22.92;;
17818;SDS011;9034;50.284;19.310;2022-10-31T00:12:23;45.63;;;23.23;;
17818;SDS011;9034;50.284;19.310;2022-10-31T00:13:26;102.72;;;29.45;;
17818;SDS011;9034;50.284;19.310;2022-10-31T00:14:30;190.40;;;37.38;;
17818;SDS011;9034;50.284;19.310;2022-10-31T00:15:33;214.55;;;38.47;;
17818;SDS011;9034;50.284;19.310;2022-10-31T00:16:37;212.18;;;34.38;;
17818;SDS011;9034;50.284;19.310;2022-10-31T00:17:42;109.50;;;29.15;;
17818;SDS011;9034;50.284;19.310;2022-10-31T00:18:47;90.18;;;26.10;;
17818;SDS011;9034;50.284;19.310;2022-10-31T00:19:51;123.32;;;24.17;;
17818;SDS011;9034;50.284;19.310;2022-10-31T00:20:58;37.47;;;19.63;;
17818;SDS011;9034;50.284;19.310;2022-10-31T00:22:02;36.05;;;21.23;;
17818;SDS011;9034;50.284;19.310;2022-10-31T00:23:06;43.08;;;22.85;;
17818;SDS011;9034;50.284;19.310;2022-10-31T00:24:10;32.42;;;19.05;;
17818;SDS011;9034;50.284;19.310;2022-10-31T00:25:14;91.28;;;24.98;;
17818;SDS011;9034;50.284;19.310;2022-10-31T00:26:18;36.33;;;19.20;;
17818;SDS011;9034;50.284;19.310;2022-10-31T00:27:23;117.80;;;26.65;;
17818;SDS011;9034;50.284;19.310;2022-10-31T00:28:29;36.13;;;18.48;;
17818;SDS011;9034;50.284;19.310;2022-10-31T00:29:34;80.65;;;22.23;;
17818;SDS011;9034;50.284;19.310;2022-10-31T00:30:37;73.50;;;21.92;;
17818;SDS011;9034;50.284;19.310;2022-10-31T00:31:41;83.93;;;23.63;;
17818;SDS011;9034;50.284;19.310;2022-10-31T00:32:44;38.40;;;20.33;;
17818;SDS011;9034;50.284;19.310;2022-10-31T00:33:48;116.88;;;22.88;;
17818;SDS011;9034;50.284;19.310;2022-10-31T00:34:52;31.13;;;18.88;;
17818;SDS011;9034;50.284;19.310;2022-10-31T00:35:57;30.83;;;19.00;;
17818;SDS011;9034;50.284;19.310;2022-10-31T00:37:00;101.18;;;21.92;;
17818;SDS011;9034;50.284;19.310;2022-10-31T00:38:04;62.38;;;20.25;;
17818;SDS011;9034;50.284;19.310;2022-10-31T00:39:07;40.35;;;18.45;;
17818;SDS011;9034;50.284;19.310;2022-10-31T00:40:11;32.30;;;18.35;;
17818;SDS011;9034;50.284;19.310;2022-10-31T00:41:14;40.35;;;19.92;;
17818;SDS011;9034;50.284;19.310;2022-10-31T00:42:21;37.28;;;19.90;;
17818;SDS011;9034;50.284;19.310;2022-10-31T00:43:24;73.97;;;23.90;;
17818;SDS011;9034;50.284;19.310;2022-10-31T00:44:27;61.22;;;19.45;;
17818;SDS011;9034;50.284;19.310;2022-10-31T00:45:30;53.83;;;18.70;;
17818;SDS011;9034;50.284;19.310;2022-10-31T00:46:34;70.57;;;15.60;;
17818;SDS011;9034;50.284;19.310;2022-10-31T00:47:37;29.77;;;15.93;;
17818;SDS011;9034;50.284;19.310;2022-10-31T00:48:41;41.03;;;17.80;;
17818;SDS011;9034;50.284;19.310;2022-10-31T00:49:44;35.90;;;16.88;;
17818;SDS011;9034;50.284;19.310;2022-10-31T00:50:48;51.67;;;17.88;;
17818;SDS011;9034;50.284;19.310;2022-10-31T00:51:51;33.67;;;14.90;;
17818;SDS011;9034;50.284;19.310;2022-10-31T00:52:55;34.60;;;14.82;;
17818;SDS011;9034;50.284;19.310;2022-10-31T00:53:59;22.27;;;13.55;;
17818;SDS011;9034;50.284;19.310;2022-10-31T00:55:03;30.98;;;15.63;;
17818;SDS011;9034;50.284;19.310;2022-10-31T00:56:06;60.75;;;18.73;;
17818;SDS011;9034;50.284;19.310;2022-10-31T00:57:10;99.57;;;18.85;;
17818;SDS011;9034;50.284;19.310;2022-10-31T00:58:15;103.50;;;19.27;;
17818;SDS011;9034;50.284;19.310;2022-10-31T00:59:19;28.75;;;15.77;;
17818;SDS011;9034;50.284;19.310;2022-10-31T01:00:22;21.13;;;13.45;;
17818;SDS011;9034;50.284;19.310;2022-10-31T01:01:27;23.65;;;14.32;;
17818;SDS011;9034;50.284;19.310;2022-10-31T01:02:30;17.95;;;11.57;;
17818;SDS011;9034;50.284;19.310;2022-10-31T01:03:35;20.45;;;12.45;;
17818;SDS011;9034;50.284;19.310;2022-10-31T01:04:37;20.08;;;12.63;;
17818;SDS011;9034;50.284;19.310;2022-10-31T01:05:41;17.10;;;12.30;;
17818;SDS011;9034;50.284;19.310;2022-10-31T01:06:44;53.28;;;15.10;;
17818;SDS011;9034;50.284;19.310;2022-10-31T01:07:50;17.10;;;11.20;;
17818;SDS011;9034;50.284;19.310;2022-10-31T01:08:53;59.20;;;16.75;;
17818;SDS011;9034;50.284;19.310;2022-10-31T01:09:57;68.90;;;17.70;;
17818;SDS011;9034;50.284;19.310;2022-10-31T01:11:01;37.35;;;14.93;;
17818;SDS011;9034;50.284;19.310;2022-10-31T01:12:08;28.00;;;13.18;;
17818;SDS011;9034;50.284;19.310;2022-10-31T01:13:13;41.10;;;14.98;;
17818;SDS011;9034;50.284;19.310;2022-10-31T01:14:21;69.15;;;16.52;;
17818;SDS011;9034;50.284;19.310;2022-10-31T01:15:24;45.20;;;15.95;;
17818;SDS011;9034;50.284;19.310;2022-10-31T01:16:28;71.00;;;16.23;;
17818;SDS011;9034;50.284;19.310;2022-10-31T01:17:32;25.50;;;14.15;;
17818;SDS011;9034;50.284;19.310;2022-10-31T01:18:36;28.80;;;15.93;;
17818;SDS011;9034;50.284;19.310;2022-10-31T01:19:39;27.65;;;15.52;;
17818;SDS011;9034;50.284;19.310;2022-10-31T01:20:43;30.77;;;15.65;;
17818;SDS011;9034;50.284;19.310;2022-10-31T01:21:46;81.78;;;17.67;;
17818;SDS011;9034;50.284;19.310;2022-10-31T01:22:50;44.33;;;15.43;;
17818;SDS011;9034;50.284;19.310;2022-10-31T01:23:54;22.45;;;14.43;;
17818;SDS011;9034;50.284;19.310;2022-10-31T01:24:58;26.38;;;14.50;;
17818;SDS011;9034;50.284;19.310;2022-10-31T01:26:03;24.40;;;14.48;;
17818;SDS011;9034;50.284;19.310;2022-10-31T01:27:09;19.17;;;14.15;;
17818;SDS011;9034;50.284;19.310;2022-10-31T01:28:12;23.73;;;13.05;;
17818;SDS011;9034;50.284;19.310;2022-10-31T01:29:16;16.65;;;12.68;;
17818;SDS011;9034;50.284;19.310;2022-10-31T01:30:20;19.17;;;12.55;;
17818;SDS011;9034;50.284;19.310;2022-10-31T01:31:25;33.75;;;13.30;;
17818;SDS011;9034;50.284;19.310;2022-10-31T01:32:30;35.78;;;12.90;;
17818;SDS011;9034;50.284;19.310;2022-10-31T01:33:34;32.78;;;13.07;;
17818;SDS011;9034;50.284;19.310;2022-10-31T01:34:37;18.05;;;11.77;;
17818;SDS011;9034;50.284;19.310;2022-10-31T01:35:41;25.83;;;12.32;;
17818;SDS011;9034;50.284;19.310;2022-10-31T01:36:44;49.50;;;13.65;;
17818;SDS011;9034;50.284;19.310;2022-10-31T01:37:53;60.17;;;14.18;;
17818;SDS011;9034;50.284;19.310;2022-10-31T01:38:56;38.65;;;16.08;;
17818;SDS011;9034;50.284;19.310;2022-10-31T01:40:01;24.60;;;13.38;;
17818;SDS011;9034;50.284;19.310;2022-10-31T01:41:04;22.10;;;13.35;;
17818;SDS011;9034;50.284;19.310;2022-10-31T01:42:09;35.03;;;14.52;;
17818;SDS011;9034;50.284;19.310;2022-10-31T01:43:13;17.92;;;11.98;;
17818;SDS011;9034;50.284;19.310;2022-10-31T01:45:55;27.02;;;13.20;;
17818;SDS011;9034;50.284;19.310;2022-10-31T01:47:03;16.38;;;12.27;;
17818;SDS011;9034;50.284;19.310;2022-10-31T01:48:11;23.85;;;12.32;;
17818;SDS011;9034;50.284;19.310;2022-10-31T01:49:18;55.58;;;15.35;;
17818;SDS011;9034;50.284;19.310;2022-10-31T01:50:26;48.50;;;14.40;;
17818;SDS011;9034;50.284;19.310;2022-10-31T01:51:33;42.85;;;12.82;;
17818;SDS011;9034;50.284;19.310;2022-10-31T01:52:38;19.90;;;12.95;;
17818;SDS011;9034;50.284;19.310;2022-10-31T01:53:45;65.35;;;20.42;;
17818;SDS011;9034;50.284;19.310;2022-10-31T01:54:48;79.68;;;23.30;;
17818;SDS011;9034;50.284;19.310;2022-10-31T01:55:54;81.22;;;23.67;;
17818;SDS011;9034;50.284;19.310;2022-10-31T01:56:58;44.47;;;16.77;;
17818;SDS011;9034;50.284;19.310;2022-10-31T01:58:02;47.60;;;18.77;;
17818;SDS011;9034;50.284;19.310;2022-10-31T01:59:10;44.17;;;17.05;;
17818;SDS011;9034;50.284;19.310;2022-10-31T02:00:15;28.52;;;14.68;;
17818;SDS011;9034;50.284;19.310;2022-10-31T02:01:20;47.25;;;16.90;;
17818;SDS011;9034;50.284;19.310;2022-10-31T02:02:23;46.80;;;18.17;;
17818;SDS011;9034;50.284;19.310;2022-10-31T02:03:29;40.58;;;19.40;;
17818;SDS011;9034;50.284;19.310;2022-10-31T02:04:33;70.80;;;19.80;;
17818;SDS011;9034;50.284;19.310;2022-10-31T02:05:58;30.08;;;16.35;;
17818;SDS011;9034;50.284;19.310;2022-10-31T02:07:03;31.13;;;16.58;;
17818;SDS011;9034;50.284;19.310;2022-10-31T02:08:10;40.25;;;16.38;;
17818;SDS011;9034;50.284;19.310;2022-10-31T02:09:16;39.50;;;16.85;;
17818;SDS011;9034;50.284;19.310;2022-10-31T02:10:22;27.15;;;14.82;;
17818;SDS011;9034;50.284;19.310;2022-10-31T02:11:27;19.80;;;12.77;;
17818;SDS011;9034;50.284;19.310;2022-10-31T02:12:31;18.13;;;12.48;;
17818;SDS011;9034;50.284;19.310;2022-10-31T02:13:36;19.20;;;11.93;;
17818;SDS011;9034;50.284;19.310;2022-10-31T02:14:42;18.10;;;12.48;;
17818;SDS011;9034;50.284;19.310;2022-10-31T02:15:45;20.58;;;13.82;;
17818;SDS011;9034;50.284;19.310;2022-10-31T02:16:53;23.13;;;14.13;;
17818;SDS011;9034;50.284;19.310;2022-10-31T02:17:56;27.40;;;17.15;;
17818;SDS011;9034;50.284;19.310;2022-10-31T02:19:01;25.50;;;16.27;;
17818;SDS011;9034;50.284;19.310;2022-10-31T02:20:09;30.08;;;16.88;;
17818;SDS011;9034;50.284;19.310;2022-10-31T02:21:17;88.43;;;21.30;;
17818;SDS011;9034;50.284;19.310;2022-10-31T02:22:23;52.05;;;25.08;;
17818;SDS011;9034;50.284;19.310;2022-10-31T02:23:35;50.70;;;25.75;;
17818;SDS011;9034;50.284;19.310;2022-10-31T02:25:17;146.68;;;29.27;;
17818;SDS011;9034;50.284;19.310;2022-10-31T02:26:51;105.18;;;31.52;;
17818;SDS011;9034;50.284;19.310;2022-10-31T02:28:13;155.23;;;33.30;;
17818;SDS011;9034;50.284;19.310;2022-10-31T02:31:12;25.75;;;16.88;;
17818;SDS011;9034;50.284;19.310;2022-10-31T02:32:25;23.73;;;15.95;;
17818;SDS011;9034;50.284;19.310;2022-10-31T02:33:32;76.85;;;23.25;;
17818;SDS011;9034;50.284;19.310;2022-10-31T02:34:46;33.30;;;17.35;;
17818;SDS011;9034;50.284;19.310;2022-10-31T02:35:55;32.97;;;18.48;;
17818;SDS011;9034;50.284;19.310;2022-10-31T02:37:07;29.00;;;18.70;;
17818;SDS011;9034;50.284;19.310;2022-10-31T02:38:18;65.53;;;22.13;;
17818;SDS011;9034;50.284;19.310;2022-10-31T02:39:26;51.80;;;18.98;;
17818;SDS011;9034;50.284;19.310;2022-10-31T02:40:35;29.50;;;18.65;;
17818;SDS011;9034;50.284;19.310;2022-10-31T02:42:03;29.75;;;17.45;;
17818;SDS011;9034;50.284;19.310;2022-10-31T02:43:12;37.15;;;17.40;;
17818;SDS011;9034;50.284;19.310;2022-10-31T02:44:20;23.55;;;16.17;;
17818;SDS011;9034;50.284;19.310;2022-10-31T02:45:28;23.08;;;16.10;;
17818;SDS011;9034;50.284;19.310;2022-10-31T02:46:34;21.60;;;15.68;;
17818;SDS011;9034;50.284;19.310;2022-10-31T02:47:43;30.75;;;18.70;;
17818;SDS011;9034;50.284;19.310;2022-10-31T02:48:47;31.48;;;19.42;;
17818;SDS011;9034;50.284;19.310;2022-10-31T02:49:53;28.00;;;18.13;;
17818;SDS011;9034;50.284;19.310;2022-10-31T02:50:59;43.85;;;20.70;;
17818;SDS011;9034;50.284;19.310;2022-10-31T02:52:13;27.30;;;17.77;;
17818;SDS011;9034;50.284;19.310;2022-10-31T02:53:16;24.10;;;16.83;;
17818;SDS011;9034;50.284;19.310;2022-10-31T02:54:21;26.70;;;16.55;;
17818;SDS011;9034;50.284;19.310;2022-10-31T02:55:42;25.10;;;16.33;;
17818;SDS011;9034;50.284;19.310;2022-10-31T02:56:51;18.75;;;13.93;;
17818;SDS011;9034;50.284;19.310;2022-10-31T02:57:57;22.10;;;15.43;;
17818;SDS011;9034;50.284;19.310;2022-10-31T02:59:03;47.13;;;17.13;;
17818;SDS011;9034;50.284;19.310;2022-10-31T03:00:09;22.65;;;15.63;;
17818;SDS011;9034;50.284;19.310;2022-10-31T03:01:20;24.08;;;15.82;;
17818;SDS011;9034;50.284;19.310;2022-10-31T03:04:12;50.55;;;18.50;;
17818;SDS011;9034;50.284;19.310;2022-10-31T03:05:38;28.42;;;15.35;;
17818;SDS011;9034;50.284;19.310;2022-10-31T03:06:49;78.75;;;17.42;;
17818;SDS011;9034;50.284;19.310;2022-10-31T03:07:57;78.50;;;18.13;;
17818;SDS011;9034;50.284;19.310;2022-10-31T03:09:07;90.45;;;21.70;;
17818;SDS011;9034;50.284;19.310;2022-10-31T03:10:15;123.07;;;22.42;;
17818;SDS011;9034;50.284;19.310;2022-10-31T03:11:23;72.43;;;17.73;;
17818;SDS011;9034;50.284;19.310;2022-10-31T03:12:34;60.33;;;16.15;;
17818;SDS011;9034;50.284;19.310;2022-10-31T03:13:49;25.63;;;13.60;;
17818;SDS011;9034;50.284;19.310;2022-10-31T03:14:56;33.72;;;14.60;;
17818;SDS011;9034;50.284;19.310;2022-10-31T03:16:10;70.88;;;16.88;;
17818;SDS011;9034;50.284;19.310;2022-10-31T03:17:20;52.53;;;17.50;;
17818;SDS011;9034;50.284;19.310;2022-10-31T03:18:27;24.58;;;14.15;;
17818;SDS011;9034;50.284;19.310;2022-10-31T03:19:34;22.52;;;13.73;;
17818;SDS011;9034;50.284;19.310;2022-10-31T03:20:41;22.88;;;15.45;;
17818;SDS011;9034;50.284;19.310;2022-10-31T03:21:49;23.92;;;15.32;;
17818;SDS011;9034;50.284;19.310;2022-10-31T03:22:56;34.50;;;14.82;;
17818;SDS011;9034;50.284;19.310;2022-10-31T03:24:00;70.22;;;17.48;;
17818;SDS011;9034;50.284;19.310;2022-10-31T03:25:04;66.45;;;16.42;;
17818;SDS011;9034;50.284;19.310;2022-10-31T03:26:09;101.43;;;19.30;;
17818;SDS011;9034;50.284;19.310;2022-10-31T03:27:13;90.55;;;19.90;;
17818;SDS011;9034;50.284;19.310;2022-10-31T03:28:20;30.42;;;15.98;;
17818;SDS011;9034;50.284;19.310;2022-10-31T03:29:28;23.13;;;15.43;;
17818;SDS011;9034;50.284;19.310;2022-10-31T03:30:34;39.92;;;14.13;;
17818;SDS011;9034;50.284;19.310;2022-10-31T03:31:49;20.40;;;13.90;;
17818;SDS011;9034;50.284;19.310;2022-10-31T03:32:56;16.98;;;12.73;;
17818;SDS011;9034;50.284;19.310;2022-10-31T03:34:04;21.90;;;13.13;;
17818;SDS011;9034;50.284;19.310;2022-10-31T03:35:09;64.78;;;16.77;;
17818;SDS011;9034;50.284;19.310;2022-10-31T03:36:14;24.92;;;15.30;;
17818;SDS011;9034;50.284;19.310;2022-10-31T03:37:19;19.38;;;13.05;;
17818;SDS011;9034;50.284;19.310;2022-10-31T03:38:23;45.33;;;16.17;;
17818;SDS011;9034;50.284;19.310;2022-10-31T03:39:28;54.78;;;17.00;;
17818;SDS011;9034;50.284;19.310;2022-10-31T03:40:31;22.63;;;14.55;;
17818;SDS011;9034;50.284;19.310;2022-10-31T03:41:38;58.63;;;14.90;;
17818;SDS011;9034;50.284;19.310;2022-10-31T03:42:44;55.25;;;15.48;;
17818;SDS011;9034;50.284;19.310;2022-10-31T03:43:57;17.08;;;13.07;;
17818;SDS011;9034;50.284;19.310;2022-10-31T03:45:03;40.92;;;13.82;;
17818;SDS011;9034;50.284;19.310;2022-10-31T03:46:10;42.35;;;15.80;;
17818;SDS011;9034;50.284;19.310;2022-10-31T03:47:12;37.55;;;14.60;;
17818;SDS011;9034;50.284;19.310;2022-10-31T03:48:17;17.05;;;11.88;;
17818;SDS011;9034;50.284;19.310;2022-10-31T03:49:22;19.60;;;13.88;;
17818;SDS011;9034;50.284;19.310;2022-10-31T03:50:28;42.80;;;14.25;;
17818;SDS011;9034;50.284;19.310;2022-10-31T03:51:36;20.52;;;13.57;;
17818;SDS011;9034;50.284;19.310;2022-10-31T03:52:45;16.27;;;11.85;;
17818;SDS011;9034;50.284;19.310;2022-10-31T03:53:52;17.23;;;11.40;;
17818;SDS011;9034;50.284;19.310;2022-10-31T03:54:58;32.55;;;13.73;;
17818;SDS011;9034;50.284;19.310;2022-10-31T03:56:06;27.75;;;14.55;;
17818;SDS011;9034;50.284;19.310;2022-10-31T03:57:14;50.53;;;13.68;;
17818;SDS011;9034;50.284;19.310;2022-10-31T03:58:21;52.28;;;13.85;;
17818;SDS011;9034;50.284;19.310;2022-10-31T03:59:29;76.07;;;19.98;;
17818;SDS011;9034;50.284;19.310;2022-10-31T04:00:35;73.53;;;14.50;;
17818;SDS011;9034;50.284;19.310;2022-10-31T04:01:44;97.47;;;17.08;;
17818;SDS011;9034;50.284;19.310;2022-10-31T04:02:51;129.18;;;17.23;;
17818;SDS011;9034;50.284;19.310;2022-10-31T04:04:01;69.20;;;15.30;;
17818;SDS011;9034;50.284;19.310;2022-10-31T04:05:06;21.83;;;13.40;;
17818;SDS011;9034;50.284;19.310;2022-10-31T04:06:11;23.80;;;13.13;;
17818;SDS011;9034;50.284;19.310;2022-10-31T04:07:17;31.27;;;12.45;;
17818;SDS011;9034;50.284;19.310;2022-10-31T04:08:24;14.38;;;10.52;;
17818;SDS011;9034;50.284;19.310;2022-10-31T04:09:31;23.05;;;13.23;;
17818;SDS011;9034;50.284;19.310;2022-10-31T04:10:37;22.52;;;12.75;;
17818;SDS011;9034;50.284;19.310;2022-10-31T04:11:43;23.48;;;14.30;;
17818;SDS011;9034;50.284;19.310;2022-10-31T04:13:19;25.95;;;12.30;;
17818;SDS011;9034;50.284;19.310;2022-10-31T04:14:35;16.42;;;11.38;;
17818;SDS011;9034;50.284;19.310;2022-10-31T04:15:39;15.85;;;10.85;;
17818;SDS011;9034;50.284;19.310;2022-10-31T04:16:44;21.77;;;14.85;;
17818;SDS011;9034;50.284;19.310;2022-10-31T04:17:48;21.30;;;13.57;;
17818;SDS011;9034;50.284;19.310;2022-10-31T04:18:54;19.42;;;12.43;;
17818;SDS011;9034;50.284;19.310;2022-10-31T04:19:58;20.05;;;14.15;;
17818;SDS011;9034;50.284;19.310;2022-10-31T04:21:06;17.83;;;12.68;;
17818;SDS011;9034;50.284;19.310;2022-10-31T04:22:10;20.27;;;14.20;;
17818;SDS011;9034;50.284;19.310;2022-10-31T04:23:15;20.08;;;13.27;;
17818;SDS011;9034;50.284;19.310;2022-10-31T04:24:23;19.75;;;12.90;;
17818;SDS011;9034;50.284;19.310;2022-10-31T04:25:27;96.47;;;19.63;;
17818;SDS011;9034;50.284;19.310;2022-10-31T04:26:32;26.40;;;15.30;;
17818;SDS011;9034;50.284;19.310;2022-10-31T04:27:36;20.98;;;12.70;;
17818;SDS011;9034;50.284;19.310;2022-10-31T04:28:41;37.80;;;15.40;;
17818;SDS011;9034;50.284;19.310;2022-10-31T04:29:46;19.90;;;13.23;;
17818;SDS011;9034;50.284;19.310;2022-10-31T04:30:52;22.25;;;13.15;;
17818;SDS011;9034;50.284;19.310;2022-10-31T04:31:56;20.08;;;12.60;;
17818;SDS011;9034;50.284;19.310;2022-10-31T04:33:00;24.45;;;14.70;;
17818;SDS011;9034;50.284;19.310;2022-10-31T04:34:04;23.17;;;14.57;;
17818;SDS011;9034;50.284;19.310;2022-10-31T04:35:07;29.70;;;14.50;;
17818;SDS011;9034;50.284;19.310;2022-10-31T04:36:13;42.58;;;13.65;;
17818;SDS011;9034;50.284;19.310;2022-10-31T04:37:17;55.35;;;13.52;;
17818;SDS011;9034;50.284;19.310;2022-10-31T04:38:22;47.05;;;14.90;;
17818;SDS011;9034;50.284;19.310;2022-10-31T04:39:27;27.80;;;12.52;;
17818;SDS011;9034;50.284;19.310;2022-10-31T04:40:50;29.02;;;11.43;;
17818;SDS011;9034;50.284;19.310;2022-10-31T04:42:12;48.22;;;13.20;;
17818;SDS011;9034;50.284;19.310;2022-10-31T04:43:15;37.50;;;10.57;;
17818;SDS011;9034;50.284;19.310;2022-10-31T04:44:24;43.47;;;12.02;;
17818;SDS011;9034;50.284;19.310;2022-10-31T04:45:34;13.10;;;10.00;;
17818;SDS011;9034;50.284;19.310;2022-10-31T04:46:38;62.72;;;12.73;;
17818;SDS011;9034;50.284;19.310;2022-10-31T04:47:42;36.63;;;11.82;;
17818;SDS011;9034;50.284;19.310;2022-10-31T04:48:46;30.50;;;13.07;;
17818;SDS011;9034;50.284;19.310;2022-10-31T04:49:50;19.27;;;10.07;;
17818;SDS011;9034;50.284;19.310;2022-10-31T04:50:57;26.33;;;11.90;;
17818;SDS011;9034;50.284;19.310;2022-10-31T04:52:03;29.08;;;12.68;;
17818;SDS011;9034;50.284;19.310;2022-10-31T04:53:07;15.30;;;10.50;;
17818;SDS011;9034;50.284;19.310;2022-10-31T04:54:22;15.45;;;9.43;;
17818;SDS011;9034;50.284;19.310;2022-10-31T04:55:46;19.73;;;10.25;;
17818;SDS011;9034;50.284;19.310;2022-10-31T04:56:53;65.95;;;13.50;;
17818;SDS011;9034;50.284;19.310;2022-10-31T04:57:57;30.45;;;13.65;;
17818;SDS011;9034;50.284;19.310;2022-10-31T04:59:02;29.85;;;12.05;;
17818;SDS011;9034;50.284;19.310;2022-10-31T05:00:18;19.50;;;10.93;;
17818;SDS011;9034;50.284;19.310;2022-10-31T05:01:24;16.67;;;10.32;;
17818;SDS011;9034;50.284;19.310;2022-10-31T05:02:29;59.15;;;14.13;;
17818;SDS011;9034;50.284;19.310;2022-10-31T05:03:33;62.45;;;14.23;;
17818;SDS011;9034;50.284;19.310;2022-10-31T05:04:37;19.13;;;11.00;;
17818;SDS011;9034;50.284;19.310;2022-10-31T05:05:42;43.78;;;11.95;;
17818;SDS011;9034;50.284;19.310;2022-10-31T05:06:47;38.33;;;12.43;;
17818;SDS011;9034;50.284;19.310;2022-10-31T05:07:53;51.97;;;13.70;;
17818;SDS011;9034;50.284;19.310;2022-10-31T05:08:58;55.53;;;13.55;;
17818;SDS011;9034;50.284;19.310;2022-10-31T05:10:03;61.17;;;13.57;;
17818;SDS011;9034;50.284;19.310;2022-10-31T05:11:07;36.10;;;12.80;;
17818;SDS011;9034;50.284;19.310;2022-10-31T05:12:11;25.50;;;12.80;;
17818;SDS011;9034;50.284;19.310;2022-10-31T05:13:33;18.98;;;11.10;;
17818;SDS011;9034;50.284;19.310;2022-10-31T05:14:46;20.50;;;11.25;;
17818;SDS011;9034;50.284;19.310;2022-10-31T05:16:09;19.08;;;11.15;;
17818;SDS011;9034;50.284;19.310;2022-10-31T05:17:42;64.97;;;14.77;;
17818;SDS011;9034;50.284;19.310;2022-10-31T05:19:05;40.13;;;15.25;;
17818;SDS011;9034;50.284;19.310;2022-10-31T05:20:09;130.18;;;19.98;;
17818;SDS011;9034;50.284;19.310;2022-10-31T05:21:32;26.73;;;13.63;;
17818;SDS011;9034;50.284;19.310;2022-10-31T05:22:41;38.42;;;14.77;;
17818;SDS011;9034;50.284;19.310;2022-10-31T05:23:46;21.27;;;12.23;;
17818;SDS011;9034;50.284;19.310;2022-10-31T05:24:51;16.70;;;11.88;;
17818;SDS011;9034;50.284;19.310;2022-10-31T05:25:54;19.55;;;12.45;;
17818;SDS011;9034;50.284;19.310;2022-10-31T05:26:57;25.27;;;14.10;;
17818;SDS011;9034;50.284;19.310;2022-10-31T05:28:00;25.80;;;14.30;;
17818;SDS011;9034;50.284;19.310;2022-10-31T05:29:05;20.75;;;13.25;;
17818;SDS011;9034;50.284;19.310;2022-10-31T05:30:08;31.63;;;15.02;;
17818;SDS011;9034;50.284;19.310;2022-10-31T05:31:15;47.58;;;16.35;;
17818;SDS011;9034;50.284;19.310;2022-10-31T05:32:17;23.20;;;14.30;;
17818;SDS011;9034;50.284;19.310;2022-10-31T05:33:47;32.63;;;16.20;;
17818;SDS011;9034;50.284;19.310;2022-10-31T05:35:25;124.60;;;18.25;;
17818;SDS011;9034;50.284;19.310;2022-10-31T05:36:48;19.52;;;12.88;;
17818;SDS011;9034;50.284;19.310;2022-10-31T05:37:56;29.35;;;13.52;;
17818;SDS011;9034;50.284;19.310;2022-10-31T05:39:01;35.95;;;15.40;;
17818;SDS011;9034;50.284;19.310;2022-10-31T05:40:10;27.60;;;14.50;;
17818;SDS011;9034;50.284;19.310;2022-10-31T05:41:14;51.03;;;16.02;;
17818;SDS011;9034;50.284;19.310;2022-10-31T05:42:21;24.65;;;14.68;;
17818;SDS011;9034;50.284;19.310;2022-10-31T05:43:24;24.48;;;14.63;;
17818;SDS011;9034;50.284;19.310;2022-10-31T05:44:28;20.80;;;13.70;;
17818;SDS011;9034;50.284;19.310;2022-10-31T05:45:55;63.92;;;16.48;;
17818;SDS011;9034;50.284;19.310;2022-10-31T05:47:18;50.47;;;15.13;;
17818;SDS011;9034;50.284;19.310;2022-10-31T05:48:40;47.30;;;13.10;;
17818;SDS011;9034;50.284;19.310;2022-10-31T05:50:03;36.78;;;11.50;;
17818;SDS011;9034;50.284;19.310;2022-10-31T05:51:21;15.65;;;10.38;;
17818;SDS011;9034;50.284;19.310;2022-10-31T05:52:24;25.65;;;15.90;;
17818;SDS011;9034;50.284;19.310;2022-10-31T05:53:35;17.63;;;12.02;;
17818;SDS011;9034;50.284;19.310;2022-10-31T05:54:40;16.15;;;12.32;;
17818;SDS011;9034;50.284;19.310;2022-10-31T05:55:43;15.90;;;12.27;;
17818;SDS011;9034;50.284;19.310;2022-10-31T05:56:57;16.80;;;11.70;;
17818;SDS011;9034;50.284;19.310;2022-10-31T05:57:59;16.50;;;12.68;;
17818;SDS011;9034;50.284;19.310;2022-10-31T05:59:04;16.40;;;12.63;;
17818;SDS011;9034;50.284;19.310;2022-10-31T06:00:08;18.15;;;14.43;;
17818;SDS011;9034;50.284;19.310;2022-10-31T06:01:21;17.98;;;12.85;;
17818;SDS011;9034;50.284;19.310;2022-10-31T06:02:29;19.02;;;13.82;;
17818;SDS011;9034;50.284;19.310;2022-10-31T06:03:54;20.60;;;14.32;;
17818;SDS011;9034;50.284;19.310;2022-10-31T06:04:58;33.90;;;17.25;;
17818;SDS011;9034;50.284;19.310;2022-10-31T06:06:01;24.10;;;15.45;;
17818;SDS011;9034;50.284;19.310;2022-10-31T06:07:15;27.05;;;15.68;;
17818;SDS011;9034;50.284;19.310;2022-10-31T06:08:18;29.65;;;17.95;;
17818;SDS011;9034;50.284;19.310;2022-10-31T06:09:23;27.17;;;16.42;;
17818;SDS011;9034;50.284;19.310;2022-10-31T06:10:27;33.80;;;18.30;;
17818;SDS011;9034;50.284;19.310;2022-10-31T06:11:32;48.20;;;19.52;;
17818;SDS011;9034;50.284;19.310;2022-10-31T06:12:37;22.77;;;16.40;;
17818;SDS011;9034;50.284;19.310;2022-10-31T06:13:59;32.70;;;18.90;;
17818;SDS011;9034;50.284;19.310;2022-10-31T06:15:41;35.17;;;19.23;;
17818;SDS011;9034;50.284;19.310;2022-10-31T06:16:46;37.63;;;19.05;;
17818;SDS011;9034;50.284;19.310;2022-10-31T06:18:07;28.38;;;19.13;;
17818;SDS011;9034;50.284;19.310;2022-10-31T06:19:23;24.00;;;17.42;;
17818;SDS011;9034;50.284;19.310;2022-10-31T06:20:26;29.40;;;19.52;;
17818;SDS011;9034;50.284;19.310;2022-10-31T06:21:37;28.38;;;20.00;;
17818;SDS011;9034;50.284;19.310;2022-10-31T06:22:41;26.65;;;19.60;;
17818;SDS011;9034;50.284;19.310;2022-10-31T06:23:43;29.85;;;20.92;;
17818;SDS011;9034;50.284;19.310;2022-10-31T06:25:20;32.58;;;21.15;;
17818;SDS011;9034;50.284;19.310;2022-10-31T06:26:25;32.42;;;22.15;;
17818;SDS011;9034;50.284;19.310;2022-10-31T06:27:29;32.95;;;23.48;;
17818;SDS011;9034;50.284;19.310;2022-10-31T06:28:38;30.70;;;22.92;;
17818;SDS011;9034;50.284;19.310;2022-10-31T06:29:58;39.97;;;29.70;;
17818;SDS011;9034;50.284;19.310;2022-10-31T06:31:05;37.22;;;27.67;;
17818;SDS011;9034;50.284;19.310;2022-10-31T06:32:09;33.60;;;24.30;;
17818;SDS011;9034;50.284;19.310;2022-10-31T06:33:17;35.17;;;25.42;;
17818;SDS011;9034;50.284;19.310;2022-10-31T06:34:29;31.65;;;24.63;;
17818;SDS011;9034;50.284;19.310;2022-10-31T06:35:33;33.35;;;24.50;;
17818;SDS011;9034;50.284;19.310;2022-10-31T06:36:38;37.50;;;26.33;;
17818;SDS011;9034;50.284;19.310;2022-10-31T06:37:54;34.47;;;23.85;;
17818;SDS011;9034;50.284;19.310;2022-10-31T06:39:11;29.13;;;21.00;;
17818;SDS011;9034;50.284;19.310;2022-10-31T06:40:14;27.05;;;18.67;;